createdAt,value
2019-05-06T00:00:29.874Z,92.50
2019-05-06T00:01:29.905Z,92.75
2019-05-06T00:02:29.846Z,92.85
2019-05-06T00:03:29.945Z,92.85
2019-05-06T00:04:29.850Z,92.54
2019-05-06T00:05:29.886Z,92.75
2019-05-06T00:06:29.801Z,92.65
2019-05-06T00:07:29.817Z,92.75
2019-05-06T00:08:29.789Z,92.85
2019-05-06T00:09:29.779Z,92.85
2019-05-06T00:10:29.749Z,92.65
2019-05-06T00:11:29.791Z,92.02
2019-05-06T00:12:29.740Z,91.71
2019-05-06T00:13:29.821Z,91.91
2019-05-06T00:14:29.721Z,92.16
2019-05-06T00:15:29.692Z,91.81
2019-05-06T00:16:30.763Z,92.65
2019-05-06T00:17:29.682Z,92.47
2019-05-06T00:18:29.763Z,92.37
2019-05-06T00:19:29.663Z,92.58
2019-05-06T00:20:29.645Z,92.37
2019-05-06T00:21:29.635Z,92.69
2019-05-06T00:22:29.637Z,92.58
2019-05-06T00:23:29.605Z,92.27
2019-05-06T00:24:29.727Z,92.63
2019-05-06T00:25:29.586Z,92.73
2019-05-06T00:26:29.617Z,93.15
2019-05-06T00:27:29.566Z,92.94
2019-05-06T00:28:29.657Z,93.25
2019-05-06T00:29:29.588Z,93.19
2019-05-06T00:30:29.588Z,93.04
2019-05-06T00:31:29.548Z,93.35
2019-05-06T00:32:29.509Z,93.67
2019-05-06T00:33:29.600Z,93.77
2019-05-06T00:34:29.479Z,93.57
2019-05-06T00:35:29.570Z,93.15
2019-05-06T00:36:29.450Z,93.88
2019-05-06T00:37:29.461Z,94.09
2019-05-06T00:38:29.442Z,94.19
2019-05-06T00:39:29.502Z,93.67
2019-05-06T00:40:29.423Z,94.19
2019-05-06T00:41:29.444Z,93.46
2019-05-06T00:42:29.394Z,93.67
2019-05-06T00:43:29.474Z,93.21
2019-05-06T00:44:29.364Z,93.94
2019-05-06T00:45:29.465Z,93.63
2019-05-06T00:46:29.345Z,93.31
2019-05-06T00:47:29.326Z,93.21
2019-05-06T00:48:29.315Z,93.41
2019-05-06T00:49:29.386Z,93.63
2019-05-06T00:50:29.318Z,93.37
2019-05-06T00:51:29.317Z,92.96
2019-05-06T00:52:29.267Z,92.85
2019-05-06T00:53:29.268Z,92.75
2019-05-06T00:54:30.348Z,92.65
2019-05-06T00:55:29.259Z,92.65
2019-05-06T00:56:29.259Z,92.02
2019-05-06T00:57:29.220Z,92.54
2019-05-06T00:58:29.210Z,92.50
2019-05-06T00:59:29.190Z,92.33
2019-05-06T01:00:29.272Z,92.44
2019-05-06T01:01:29.935Z,92.91
2019-05-06T01:02:29.272Z,92.02
2019-05-06T01:03:29.154Z,92.18
2019-05-06T01:04:29.132Z,91.97
2019-05-06T01:05:29.213Z,91.66
2019-05-06T01:06:29.114Z,91.87
2019-05-06T01:07:29.205Z,91.56
2019-05-06T01:08:29.085Z,91.87
2019-05-06T01:09:29.086Z,91.66
2019-05-06T01:10:29.085Z,91.46
2019-05-06T01:11:29.076Z,91.56
2019-05-06T01:12:29.037Z,90.83
2019-05-06T01:13:29.116Z,91.04
2019-05-06T01:14:29.034Z,91.35
2019-05-06T01:15:29.018Z,91.56
2019-05-06T01:16:29.018Z,91.35
2019-05-06T01:17:28.978Z,91.14
2019-05-06T01:18:29.059Z,91.14
2019-05-06T01:19:28.971Z,91.14
2019-05-06T01:20:28.959Z,90.79
2019-05-06T01:21:28.931Z,91.10
2019-05-06T01:22:29.031Z,91.10
2019-05-06T01:23:28.922Z,90.37
2019-05-06T01:24:28.968Z,89.95
2019-05-06T01:25:28.922Z,89.75
2019-05-06T01:26:28.902Z,90.47
2019-05-06T01:27:28.875Z,89.64
2019-05-06T01:28:28.934Z,90.06
2019-05-06T01:29:28.846Z,89.85
2019-05-06T01:30:28.875Z,89.95
2019-05-06T01:31:39.808Z,90.37
2019-05-06T01:32:29.815Z,90.47
2019-05-06T01:33:28.875Z,90.68
2019-05-06T01:34:28.797Z,90.12
2019-05-06T01:35:28.818Z,90.01
2019-05-06T01:36:28.777Z,89.85
2019-05-06T01:37:28.857Z,89.60
2019-05-06T01:38:28.739Z,90.12
2019-05-06T01:39:28.788Z,89.75
2019-05-06T01:40:28.720Z,89.60
2019-05-06T01:41:29.780Z,89.64
2019-05-06T01:42:28.690Z,90.06
2019-05-06T01:43:28.762Z,89.43
2019-05-06T01:44:28.670Z,89.70
2019-05-06T01:45:28.693Z,90.16
2019-05-06T01:46:28.668Z,90.01
2019-05-06T01:47:28.641Z,89.50
2019-05-06T01:48:28.622Z,88.91
2019-05-06T01:49:28.663Z,88.39
2019-05-06T01:50:28.610Z,88.87
2019-05-06T01:51:28.644Z,89.75
2019-05-06T01:52:28.583Z,90.01
2019-05-06T01:53:28.565Z,89.70
2019-05-06T01:54:28.604Z,89.60
2019-05-06T01:55:28.556Z,89.81
2019-05-06T01:56:28.585Z,89.70
2019-05-06T01:57:28.516Z,89.60
2019-05-06T01:58:28.506Z,89.91
2019-05-06T01:59:28.507Z,90.12
2019-05-06T02:00:28.518Z,89.91
2019-05-06T02:01:28.487Z,89.39
2019-05-06T02:02:28.549Z,89.50
2019-05-06T02:03:28.458Z,89.60
2019-05-06T02:04:28.489Z,89.91
2019-05-06T02:05:28.430Z,89.39
2019-05-06T02:06:28.461Z,89.18
2019-05-06T02:07:28.403Z,89.08
2019-05-06T02:08:28.461Z,89.70
2019-05-06T02:09:28.382Z,89.29
2019-05-06T02:10:28.491Z,89.18
2019-05-06T02:11:28.375Z,89.18
2019-05-06T02:12:28.433Z,89.18
2019-05-06T02:13:28.334Z,89.39
2019-05-06T02:14:28.323Z,89.18
2019-05-06T02:15:28.314Z,89.85
2019-05-06T02:16:28.344Z,89.81
2019-05-06T02:17:28.285Z,90.12
2019-05-06T02:18:28.335Z,90.06
2019-05-06T02:19:28.267Z,90.47
2019-05-06T02:20:28.266Z,90.37
2019-05-06T02:21:28.287Z,90.68
2019-05-06T02:22:28.227Z,90.58
2019-05-06T02:23:28.267Z,89.95
2019-05-06T02:24:28.221Z,90.47
2019-05-06T02:25:28.198Z,91.00
2019-05-06T02:26:28.229Z,91.00
2019-05-06T02:27:28.240Z,91.00
2019-05-06T02:28:28.170Z,91.10
2019-05-06T02:29:28.180Z,90.89
2019-05-06T02:30:28.142Z,91.00
2019-05-06T02:31:28.131Z,91.00
2019-05-06T02:32:31.541Z,90.79
2019-05-06T02:33:28.115Z,90.79
2019-05-06T02:34:28.134Z,90.79
2019-05-06T02:35:28.083Z,90.89
2019-05-06T02:36:28.083Z,90.89
2019-05-06T02:37:28.095Z,90.79
2019-05-06T02:38:35.568Z,90.89
2019-05-06T02:39:29.038Z,90.79
2019-05-06T02:40:32.970Z,91.00
2019-05-06T02:41:28.031Z,90.93
2019-05-06T02:42:28.104Z,91.20
2019-05-06T02:43:27.987Z,91.62
2019-05-06T02:44:27.996Z,91.56
2019-05-06T02:45:27.978Z,91.56
2019-05-06T02:46:28.030Z,91.41
2019-05-06T02:47:28.049Z,91.56
2019-05-06T02:48:27.928Z,91.62
2019-05-06T02:49:27.940Z,91.87
2019-05-06T02:50:27.930Z,91.87
2019-05-06T02:51:27.971Z,91.46
2019-05-06T02:52:27.900Z,91.46
2019-05-06T02:53:27.911Z,91.35
2019-05-06T02:54:27.860Z,91.14
2019-05-06T02:55:29.166Z,91.77
2019-05-06T02:56:27.841Z,91.66
2019-05-06T02:57:27.931Z,91.66
2019-05-06T02:58:27.823Z,91.66
2019-05-06T02:59:28.845Z,91.87
2019-05-06T03:00:27.794Z,91.87
2019-05-06T03:01:27.858Z,91.46
2019-05-06T03:02:39.857Z,91.46
2019-05-06T03:03:28.754Z,91.97
2019-05-06T03:04:27.857Z,91.97
2019-05-06T03:05:27.745Z,91.87
2019-05-06T03:06:27.797Z,91.77
2019-05-06T03:07:27.738Z,91.66
2019-05-06T03:08:27.726Z,91.66
2019-05-06T03:09:27.699Z,91.56
2019-05-06T03:10:27.769Z,91.46
2019-05-06T03:11:27.670Z,91.56
2019-05-06T03:12:27.749Z,91.56
2019-05-06T03:13:27.650Z,91.35
2019-05-06T03:14:27.645Z,91.77
2019-05-06T03:15:27.720Z,91.66
2019-05-06T03:16:27.610Z,91.97
2019-05-06T03:17:27.680Z,91.66
2019-05-06T03:18:27.607Z,91.77
2019-05-06T03:19:27.571Z,91.87
2019-05-06T03:20:27.563Z,91.77
2019-05-06T03:21:27.614Z,92.71
2019-05-06T03:22:27.948Z,92.81
2019-05-06T03:23:27.644Z,92.08
2019-05-06T03:24:27.513Z,92.29
2019-05-06T03:25:27.504Z,92.50
2019-05-06T03:26:27.557Z,92.60
2019-05-06T03:27:27.506Z,92.40
2019-05-06T03:28:27.596Z,92.33
2019-05-06T03:29:27.461Z,92.08
2019-05-06T03:30:27.457Z,92.91
2019-05-06T03:31:27.440Z,92.81
2019-05-06T03:32:30.612Z,93.37
2019-05-06T03:33:45.785Z,92.96
2019-05-06T03:34:52.267Z,92.96
2019-05-06T03:35:48.423Z,92.85
2019-05-06T03:36:34.869Z,92.85
2019-05-06T03:37:28.371Z,93.06
2019-05-06T03:38:27.420Z,93.16
2019-05-06T03:39:27.361Z,93.06
2019-05-06T03:40:27.400Z,93.37
2019-05-06T03:41:27.375Z,93.16
2019-05-06T03:42:27.322Z,92.96
2019-05-06T03:43:27.352Z,93.59
2019-05-06T03:44:27.293Z,93.16
2019-05-06T03:45:27.347Z,93.69
2019-05-06T03:46:27.263Z,93.69
2019-05-06T03:47:27.266Z,93.27
2019-05-06T03:48:27.295Z,93.37
2019-05-06T03:49:27.233Z,93.16
2019-05-06T03:50:27.288Z,93.16
2019-05-06T03:51:27.216Z,93.16
2019-05-06T03:52:27.207Z,93.69
2019-05-06T03:53:27.206Z,93.16
2019-05-06T03:54:27.261Z,93.69
2019-05-06T03:55:27.175Z,92.96
2019-05-06T03:56:27.188Z,93.90
2019-05-06T03:57:27.139Z,94.10
2019-05-06T03:58:27.170Z,93.69
2019-05-06T03:59:27.128Z,93.16
2019-05-06T04:00:27.158Z,93.06
2019-05-06T04:01:27.100Z,93.27
2019-05-06T04:02:27.102Z,92.96
2019-05-06T04:03:42.470Z,93.23
2019-05-06T04:04:28.171Z,93.37
2019-05-06T04:05:27.050Z,93.37
2019-05-06T04:06:27.079Z,93.44
2019-05-06T04:07:27.022Z,93.27
2019-05-06T04:08:27.043Z,93.44
2019-05-06T04:09:27.007Z,93.44
2019-05-06T04:10:27.048Z,93.48
2019-05-06T04:11:26.988Z,93.54
2019-05-06T04:12:27.089Z,93.44
2019-05-06T04:13:26.976Z,93.23
2019-05-06T04:14:26.948Z,93.02
2019-05-06T04:15:27.041Z,93.12
2019-05-06T04:16:26.937Z,92.81
2019-05-06T04:17:27.019Z,93.50
2019-05-06T04:18:26.936Z,93.02
2019-05-06T04:19:26.890Z,92.81
2019-05-06T04:20:26.927Z,92.56
2019-05-06T04:21:26.887Z,92.77
2019-05-06T04:22:26.961Z,92.56
2019-05-06T04:23:26.840Z,92.46
2019-05-06T04:24:26.950Z,92.35
2019-05-06T04:25:26.832Z,92.35
2019-05-06T04:26:26.833Z,92.52
2019-05-06T04:27:26.802Z,92.52
2019-05-06T04:28:26.871Z,91.89
2019-05-06T04:29:26.802Z,91.58
2019-05-06T04:30:26.765Z,91.47
2019-05-06T04:31:26.757Z,91.58
2019-05-06T04:32:26.842Z,91.68
2019-05-06T04:33:26.743Z,91.68
2019-05-06T04:34:26.814Z,91.53
2019-05-06T04:35:26.704Z,90.95
2019-05-06T04:36:26.821Z,91.43
2019-05-06T04:37:26.694Z,91.75
2019-05-06T04:38:26.746Z,90.85
2019-05-06T04:39:26.676Z,90.70
2019-05-06T04:40:26.687Z,90.87
2019-05-06T04:41:27.025Z,91.12
2019-05-06T04:42:27.163Z,90.60
2019-05-06T04:43:27.262Z,90.45
2019-05-06T04:44:26.700Z,89.98
2019-05-06T04:45:26.599Z,89.83
2019-05-06T04:46:26.580Z,89.52
2019-05-06T04:47:26.571Z,89.62
2019-05-06T04:48:26.633Z,89.52
2019-05-06T04:49:26.570Z,89.27
2019-05-06T04:50:26.561Z,88.85
2019-05-06T04:51:26.529Z,88.64
2019-05-06T04:52:26.601Z,88.43
2019-05-06T04:53:27.064Z,88.33
2019-05-06T04:54:26.824Z,87.92
2019-05-06T04:55:26.482Z,87.81
2019-05-06T04:56:26.574Z,87.92
2019-05-06T04:57:26.467Z,87.88
2019-05-06T04:58:26.507Z,87.56
2019-05-06T04:59:26.453Z,87.77
2019-05-06T05:00:26.544Z,87.98
2019-05-06T05:01:26.415Z,87.66
2019-05-06T05:02:26.414Z,88.04
2019-05-06T05:03:26.391Z,87.21
2019-05-06T05:04:32.172Z,86.69
2019-05-06T05:05:27.377Z,86.24
2019-05-06T05:06:26.769Z,86.24
2019-05-06T05:07:26.344Z,86.34
2019-05-06T05:08:26.327Z,85.68
2019-05-06T05:09:26.403Z,85.47
2019-05-06T05:10:26.323Z,84.95
2019-05-06T05:11:27.412Z,84.60
2019-05-06T05:12:26.281Z,84.29
2019-05-06T05:13:26.331Z,83.53
2019-05-06T05:14:26.347Z,83.11
2019-05-06T05:15:26.360Z,82.34
2019-05-06T05:16:26.242Z,81.72
2019-05-06T05:17:27.321Z,81.48
2019-05-06T05:18:26.228Z,81.68
2019-05-06T05:19:26.223Z,80.75
2019-05-06T05:20:36.983Z,79.88
2019-05-06T05:21:27.184Z,79.78
2019-05-06T05:22:26.244Z,79.74
2019-05-06T05:23:26.154Z,79.64
2019-05-06T05:24:26.164Z,79.40
2019-05-06T05:25:26.136Z,79.19
2019-05-06T05:26:26.215Z,78.16
2019-05-06T05:27:26.125Z,77.50
2019-05-06T05:28:26.148Z,77.50
2019-05-06T05:29:26.159Z,77.26
2019-05-06T05:30:26.086Z,77.67
2019-05-06T05:31:27.177Z,76.12
2019-05-06T05:32:26.988Z,76.43
2019-05-06T05:33:26.080Z,75.70
2019-05-06T05:34:37.112Z,75.50
2019-05-06T05:35:27.049Z,75.67
2019-05-06T05:36:26.089Z,75.26
2019-05-06T05:37:26.000Z,74.84
2019-05-06T05:38:26.020Z,74.46
2019-05-06T05:39:25.983Z,74.15
2019-05-06T05:40:25.982Z,74.98
2019-05-06T05:41:25.952Z,74.63
2019-05-06T05:42:25.996Z,74.43
2019-05-06T05:43:25.943Z,73.98
2019-05-06T05:44:26.042Z,73.67
2019-05-06T05:45:25.923Z,73.57
2019-05-06T05:46:25.963Z,74.19
2019-05-06T05:47:25.899Z,73.64
2019-05-06T05:48:25.894Z,73.95
2019-05-06T05:49:25.865Z,73.74
2019-05-06T05:50:25.886Z,73.33
2019-05-06T05:51:25.846Z,73.19
2019-05-06T05:52:26.896Z,72.47
2019-05-06T05:53:25.816Z,71.92
2019-05-06T05:54:25.919Z,72.13
2019-05-06T05:55:25.818Z,71.51
2019-05-06T05:56:25.833Z,71.30
2019-05-06T05:57:25.768Z,71.51
2019-05-06T05:58:26.809Z,71.41
2019-05-06T05:59:25.779Z,70.99
2019-05-06T06:00:25.861Z,70.78
2019-05-06T06:01:25.780Z,71.51
2019-05-06T06:02:25.711Z,71.41
2019-05-06T06:03:25.721Z,71.85
2019-05-06T06:04:25.693Z,71.54
2019-05-06T06:05:25.805Z,71.75
2019-05-06T06:06:25.662Z,72.16
2019-05-06T06:07:25.663Z,72.85
2019-05-06T06:08:25.665Z,72.85
2019-05-06T06:09:25.638Z,72.19
2019-05-06T06:10:25.745Z,71.34
2019-05-06T06:11:25.615Z,70.07
2019-05-06T06:12:25.615Z,69.01
2019-05-06T06:13:25.595Z,68.22
2019-05-06T06:14:25.576Z,67.16
2019-05-06T06:15:25.688Z,66.41
2019-05-06T06:16:25.557Z,65.38
2019-05-06T06:17:25.538Z,65.66
2019-05-06T06:18:25.648Z,64.47
2019-05-06T06:19:25.529Z,62.93
2019-05-06T06:20:25.630Z,62.15
2019-05-06T06:21:28.195Z,60.68
2019-05-06T06:22:25.479Z,56.04
2019-05-06T06:23:25.481Z,51.81
2019-05-06T06:24:25.552Z,50.93
2019-05-06T06:25:25.750Z,48.48
2019-05-06T06:26:25.482Z,45.18
2019-05-06T06:27:25.422Z,44.54
2019-05-06T06:28:25.522Z,44.64
2019-05-06T06:29:25.403Z,45.19
2019-05-06T06:30:25.453Z,44.84
2019-05-06T06:31:25.394Z,45.84
2019-05-06T06:32:26.424Z,45.07
2019-05-06T06:33:25.356Z,43.12
2019-05-06T06:34:25.425Z,41.67
2019-05-06T06:35:25.344Z,40.84
2019-05-06T06:36:25.418Z,40.52
2019-05-06T06:37:25.317Z,39.74
2019-05-06T06:38:25.297Z,38.44
2019-05-06T06:39:25.287Z,36.68
2019-05-06T06:40:25.338Z,34.73
2019-05-06T06:41:25.289Z,33.98
2019-05-06T06:42:25.269Z,33.25
2019-05-06T06:43:25.239Z,32.73
2019-05-06T06:44:25.311Z,31.04
2019-05-06T06:45:25.241Z,32.64
2019-05-06T06:46:25.292Z,36.02
2019-05-06T06:47:25.191Z,34.86
2019-05-06T06:48:27.874Z,34.61
2019-05-06T06:49:25.194Z,32.93
2019-05-06T06:50:25.213Z,33.41
2019-05-06T06:51:25.163Z,33.07
2019-05-06T06:52:25.155Z,33.01
2019-05-06T06:53:25.134Z,31.88
2019-05-06T06:54:25.115Z,30.52
2019-05-06T06:55:25.157Z,28.58
2019-05-06T06:56:25.116Z,29.47
2019-05-06T06:57:25.098Z,32.27
2019-05-06T06:58:25.068Z,32.12
2019-05-06T06:59:25.058Z,32.14
2019-05-06T07:00:25.067Z,33.00
2019-05-06T07:01:25.120Z,34.38
2019-05-06T07:02:25.021Z,33.41
2019-05-06T07:03:25.110Z,30.99
2019-05-06T07:04:25.081Z,31.28
2019-05-06T07:05:28.334Z,29.63
2019-05-06T07:06:26.071Z,29.86
2019-05-06T07:07:39.962Z,28.96
2019-05-06T07:08:34.911Z,30.14
2019-05-06T07:09:25.943Z,32.87
2019-05-06T07:10:24.983Z,35.86
2019-05-06T07:11:24.915Z,32.90
2019-05-06T07:12:26.002Z,33.26
2019-05-06T07:13:24.905Z,32.21
2019-05-06T07:14:25.975Z,30.14
2019-05-06T07:15:24.876Z,28.94
2019-05-06T07:16:24.887Z,31.09
2019-05-06T07:17:24.867Z,35.83
2019-05-06T07:18:24.927Z,35.51
2019-05-06T07:19:24.828Z,32.82
2019-05-06T07:20:24.829Z,30.19
2019-05-06T07:21:24.819Z,29.27
2019-05-06T07:22:24.800Z,30.19
2019-05-06T07:23:24.863Z,30.52
2019-05-06T07:24:24.781Z,33.34
2019-05-06T07:25:24.780Z,34.94
2019-05-06T07:26:24.742Z,35.88
2019-05-06T07:27:24.773Z,37.75
2019-05-06T07:28:24.732Z,39.14
2019-05-06T07:29:26.759Z,41.58
2019-05-06T07:30:24.704Z,44.40
2019-05-06T07:31:26.732Z,46.66
2019-05-06T07:32:24.726Z,47.70
2019-05-06T07:33:24.657Z,45.06
2019-05-06T07:34:24.707Z,45.38
2019-05-06T07:35:37.580Z,45.38
2019-05-06T07:36:25.628Z,45.30
2019-05-06T07:37:24.658Z,45.71
2019-05-06T07:38:24.609Z,46.55
2019-05-06T07:39:24.659Z,46.14
2019-05-06T07:40:24.599Z,47.71
2019-05-06T07:41:25.612Z,46.20
2019-05-06T07:42:24.591Z,48.14
2019-05-06T07:43:25.654Z,48.55
2019-05-06T07:44:24.556Z,49.92
2019-05-06T07:45:24.563Z,49.43
2019-05-06T07:46:24.518Z,49.22
2019-05-06T07:47:24.526Z,48.84
2019-05-06T07:48:24.574Z,49.66
2019-05-06T07:49:24.487Z,49.43
2019-05-06T07:50:24.510Z,48.28
2019-05-06T07:51:24.497Z,48.06
2019-05-06T07:52:24.596Z,47.65
2019-05-06T07:53:24.438Z,48.18
2019-05-06T07:54:24.478Z,48.39
2019-05-06T07:55:24.429Z,47.47
2019-05-06T07:56:24.518Z,48.10
2019-05-06T07:57:24.409Z,49.22
2019-05-06T07:58:24.379Z,49.25
2019-05-06T07:59:24.452Z,49.99
2019-05-06T08:00:24.371Z,50.17
2019-05-06T08:01:26.151Z,51.81
2019-05-06T08:02:24.353Z,50.15
2019-05-06T08:03:24.339Z,47.96
2019-05-06T08:04:24.364Z,47.96
2019-05-06T08:05:24.305Z,46.47
2019-05-06T08:06:24.394Z,47.54
2019-05-06T08:07:24.304Z,47.02
2019-05-06T08:08:24.262Z,45.07
2019-05-06T08:09:24.259Z,40.48
2019-05-06T08:10:24.367Z,37.37
2019-05-06T08:11:26.069Z,34.61
2019-05-06T08:12:24.853Z,33.11
2019-05-06T08:13:24.219Z,30.34
2019-05-06T08:14:24.199Z,28.85
2019-05-06T08:15:24.199Z,26.62
2019-05-06T08:16:24.280Z,26.02
2019-05-06T08:17:24.172Z,26.40
2019-05-06T08:18:24.251Z,27.02
2019-05-06T08:19:24.161Z,27.47
2019-05-06T08:20:25.171Z,27.79
2019-05-06T08:21:24.102Z,31.04
2019-05-06T08:22:24.173Z,34.72
2019-05-06T08:23:24.124Z,37.54
2019-05-06T08:24:25.144Z,37.10
2019-05-06T08:25:24.074Z,36.82
2019-05-06T08:26:25.175Z,38.49
2019-05-06T08:27:24.065Z,38.18
2019-05-06T08:28:37.430Z,39.85
2019-05-06T08:29:25.027Z,40.86
2019-05-06T08:30:24.079Z,41.52
2019-05-06T08:31:24.097Z,41.74
2019-05-06T08:32:23.997Z,43.30
2019-05-06T08:33:24.075Z,43.90
2019-05-06T08:34:23.969Z,45.57
2019-05-06T08:35:23.999Z,47.66
2019-05-06T08:36:23.980Z,49.24
2019-05-06T08:37:24.000Z,50.90
2019-05-06T08:38:23.941Z,51.93
2019-05-06T08:39:23.942Z,53.39
2019-05-06T08:40:26.477Z,52.56
2019-05-06T08:41:23.994Z,54.23
2019-05-06T08:42:23.894Z,55.08
2019-05-06T08:43:23.965Z,55.82
2019-05-06T08:44:23.864Z,57.70
2019-05-06T08:45:23.946Z,58.72
2019-05-06T08:46:23.841Z,57.08
2019-05-06T08:47:23.886Z,59.85
2019-05-06T08:48:23.836Z,60.23
2019-05-06T08:49:23.918Z,60.13
2019-05-06T08:50:23.789Z,59.89
2019-05-06T08:51:23.849Z,58.36
2019-05-06T08:52:23.768Z,58.72
2019-05-06T08:53:24.378Z,58.58
2019-05-06T08:54:23.759Z,61.45
2019-05-06T08:55:23.831Z,58.04
2019-05-06T08:56:23.720Z,56.41
2019-05-06T08:57:23.711Z,57.40
2019-05-06T08:58:23.715Z,59.96
2019-05-06T08:59:24.138Z,60.75
2019-05-06T09:00:23.674Z,60.96
2019-05-06T09:01:23.734Z,60.14
2019-05-06T09:02:23.657Z,53.90
2019-05-06T09:03:23.724Z,54.03
2019-05-06T09:04:23.635Z,53.52
2019-05-06T09:05:23.715Z,53.62
2019-05-06T09:06:29.947Z,53.95
2019-05-06T09:07:24.677Z,55.00
2019-05-06T09:08:23.608Z,57.02
2019-05-06T09:09:23.577Z,56.84
2019-05-06T09:10:23.729Z,57.56
2019-05-06T09:11:25.803Z,57.79
2019-05-06T09:12:23.679Z,57.18
2019-05-06T09:13:23.566Z,59.43
2019-05-06T09:14:23.917Z,56.56
2019-05-06T09:15:23.592Z,56.67
2019-05-06T09:16:23.511Z,54.92
2019-05-06T09:17:23.522Z,56.23
2019-05-06T09:18:24.109Z,56.13
2019-05-06T09:19:23.627Z,55.10
2019-05-06T09:20:23.558Z,54.38
2019-05-06T09:21:23.435Z,52.31
2019-05-06T09:22:23.666Z,53.31
2019-05-06T09:23:23.426Z,51.47
2019-05-06T09:24:23.416Z,53.49
2019-05-06T09:25:23.396Z,52.47
2019-05-06T09:26:24.467Z,50.91
2019-05-06T09:27:23.377Z,52.06
2019-05-06T09:28:24.401Z,50.93
2019-05-06T09:29:23.359Z,52.55
2019-05-06T09:30:23.350Z,51.60
2019-05-06T09:31:23.400Z,49.76
2019-05-06T09:32:23.362Z,48.10
2019-05-06T09:33:23.420Z,47.19
2019-05-06T09:34:23.516Z,48.08
2019-05-06T09:35:23.291Z,48.08
2019-05-06T09:36:23.274Z,49.57
2019-05-06T09:37:24.442Z,49.26
2019-05-06T09:38:23.254Z,47.24
2019-05-06T09:39:23.373Z,49.18
2019-05-06T09:40:23.224Z,47.27
2019-05-06T09:41:23.220Z,47.86
2019-05-06T09:42:23.399Z,47.42
2019-05-06T09:43:23.206Z,49.26
2019-05-06T09:44:23.306Z,46.83
2019-05-06T09:45:23.166Z,48.98
2019-05-06T09:46:23.223Z,47.42
2019-05-06T09:47:23.148Z,45.79
2019-05-06T09:48:23.229Z,45.36
2019-05-06T09:49:23.119Z,44.96
2019-05-06T09:50:23.240Z,46.15
2019-05-06T09:51:23.111Z,47.30
2019-05-06T09:52:23.400Z,46.36
2019-05-06T09:53:23.281Z,44.96
2019-05-06T09:54:23.724Z,45.47
2019-05-06T09:55:23.084Z,43.94
2019-05-06T09:56:23.145Z,45.08
2019-05-06T09:57:23.033Z,46.26
2019-05-06T09:58:24.044Z,46.47
2019-05-06T09:59:23.016Z,44.96
2019-05-06T10:00:23.697Z,45.59
2019-05-06T10:01:22.989Z,45.20
2019-05-06T10:02:23.246Z,48.08
2019-05-06T10:03:22.967Z,45.32
2019-05-06T10:04:23.017Z,47.29
2019-05-06T10:05:22.957Z,45.25
2019-05-06T10:06:22.968Z,46.90
2019-05-06T10:07:22.919Z,46.78
2019-05-06T10:08:22.904Z,45.86
2019-05-06T10:09:24.868Z,47.29
2019-05-06T10:10:22.910Z,44.81
2019-05-06T10:11:22.898Z,46.66
2019-05-06T10:12:22.861Z,46.26
2019-05-06T10:13:22.843Z,46.47
2019-05-06T10:14:23.396Z,46.25
2019-05-06T10:15:22.924Z,45.72
2019-05-06T10:16:22.813Z,43.77
2019-05-06T10:17:22.913Z,44.79
2019-05-06T10:18:22.795Z,44.69
2019-05-06T10:19:22.813Z,43.44
2019-05-06T10:20:23.875Z,43.37
2019-05-06T10:21:23.034Z,43.38
2019-05-06T10:22:23.337Z,43.77
2019-05-06T10:23:22.727Z,43.96
2019-05-06T10:24:22.721Z,42.41
2019-05-06T10:25:22.798Z,41.39
2019-05-06T10:26:23.444Z,43.38
2019-05-06T10:27:22.820Z,41.66
2019-05-06T10:28:23.375Z,41.35
2019-05-06T10:29:22.730Z,40.84
2019-05-06T10:30:22.682Z,39.11
2019-05-06T10:31:22.652Z,39.42
2019-05-06T10:32:22.634Z,42.98
2019-05-06T10:33:22.704Z,44.28
2019-05-06T10:34:22.614Z,40.12
2019-05-06T10:35:25.616Z,40.66
2019-05-06T10:36:23.585Z,41.59
2019-05-06T10:37:22.675Z,43.26
2019-05-06T10:38:22.880Z,45.49
2019-05-06T10:39:22.969Z,42.94
2019-05-06T10:40:22.810Z,43.44
2019-05-06T10:41:22.572Z,43.47
2019-05-06T10:42:23.096Z,43.69
2019-05-06T10:43:22.516Z,45.22
2019-05-06T10:44:22.790Z,45.86
2019-05-06T10:45:22.499Z,47.69
2019-05-06T10:46:22.676Z,46.49
2019-05-06T10:47:22.703Z,46.19
2019-05-06T10:48:22.682Z,44.57
2019-05-06T10:49:22.801Z,45.20
2019-05-06T10:50:22.969Z,45.10
2019-05-06T10:51:22.965Z,45.72
2019-05-06T10:52:22.403Z,46.76
2019-05-06T10:53:23.350Z,46.35
2019-05-06T10:54:22.934Z,47.17
2019-05-06T10:55:23.113Z,48.58
2019-05-06T10:56:23.048Z,47.15
2019-05-06T10:57:22.356Z,47.35
2019-05-06T10:58:23.433Z,46.64
2019-05-06T10:59:22.354Z,46.44
2019-05-06T11:00:23.117Z,43.76
2019-05-06T11:01:23.186Z,44.70
2019-05-06T11:02:23.247Z,45.51
2019-05-06T11:03:22.748Z,44.18
2019-05-06T11:04:22.602Z,46.23
2019-05-06T11:05:22.271Z,44.57
2019-05-06T11:06:22.271Z,44.98
2019-05-06T11:07:31.382Z,44.14
2019-05-06T11:08:23.226Z,44.85
2019-05-06T11:09:22.736Z,43.38
2019-05-06T11:10:27.932Z,42.04
2019-05-06T11:11:32.654Z,42.12
2019-05-06T11:12:23.174Z,43.44
2019-05-06T11:13:24.486Z,42.73
2019-05-06T11:14:22.909Z,41.89
2019-05-06T11:15:23.258Z,43.24
2019-05-06T11:16:23.733Z,43.53
2019-05-06T11:17:23.300Z,43.04
2019-05-06T11:18:23.429Z,43.30
2019-05-06T11:19:22.482Z,42.59
2019-05-06T11:20:24.181Z,42.98
2019-05-06T11:21:22.614Z,41.63
2019-05-06T11:22:24.644Z,41.52
2019-05-06T11:23:22.117Z,40.09
2019-05-06T11:24:23.185Z,42.51
2019-05-06T11:25:23.011Z,42.59
2019-05-06T11:26:23.698Z,39.44
2019-05-06T11:27:28.691Z,39.26
2019-05-06T11:28:23.002Z,40.50
2019-05-06T11:29:22.122Z,39.36
2019-05-06T11:30:24.674Z,39.34
2019-05-06T11:31:22.976Z,39.64
2019-05-06T11:32:23.798Z,41.96
2019-05-06T11:33:22.412Z,39.22
2019-05-06T11:34:22.250Z,39.34
2019-05-06T11:35:22.893Z,40.16
2019-05-06T11:36:22.983Z,41.31
2019-05-06T11:37:23.268Z,40.64
2019-05-06T11:38:22.793Z,40.96
2019-05-06T11:39:23.328Z,40.10
2019-05-06T11:40:23.458Z,43.08
2019-05-06T11:41:23.359Z,41.85
2019-05-06T11:42:28.925Z,42.47
2019-05-06T11:43:22.972Z,45.00
2019-05-06T11:44:23.844Z,41.71
2019-05-06T11:45:22.802Z,41.61
2019-05-06T11:46:22.888Z,43.04
2019-05-06T11:47:23.305Z,41.19
2019-05-06T11:48:22.459Z,40.76
2019-05-06T11:49:23.246Z,41.05
2019-05-06T11:50:22.049Z,41.55
2019-05-06T11:51:23.087Z,41.94
2019-05-06T11:52:22.611Z,41.74
2019-05-06T11:53:23.125Z,41.66
2019-05-06T11:54:24.371Z,40.94
2019-05-06T11:55:31.720Z,41.27
2019-05-06T11:56:23.121Z,40.88
2019-05-06T11:57:23.184Z,40.78
2019-05-06T11:58:22.386Z,41.69
2019-05-06T11:59:22.673Z,41.28
2019-05-06T12:00:23.790Z,42.71
2019-05-06T12:01:22.720Z,41.92
2019-05-06T12:02:21.674Z,42.73
2019-05-06T12:03:23.302Z,43.65
2019-05-06T12:04:22.782Z,43.55
2019-05-06T12:05:22.341Z,45.18
2019-05-06T12:06:22.676Z,43.75
2019-05-06T12:07:24.524Z,41.80
2019-05-06T12:08:22.208Z,41.82
2019-05-06T12:09:22.227Z,43.35
2019-05-06T12:10:22.472Z,41.83
2019-05-06T12:11:23.747Z,41.42
2019-05-06T12:12:23.332Z,41.73
2019-05-06T12:13:23.018Z,41.12
2019-05-06T12:14:22.636Z,42.55
2019-05-06T12:15:23.020Z,41.94
2019-05-06T12:16:26.149Z,41.71
2019-05-06T12:17:22.537Z,42.12
2019-05-06T12:18:23.052Z,41.28
2019-05-06T12:19:22.491Z,42.21
2019-05-06T12:20:22.184Z,41.51
2019-05-06T12:21:23.214Z,41.51
2019-05-06T12:22:22.198Z,41.82
2019-05-06T12:23:22.397Z,41.71
2019-05-06T12:24:22.895Z,43.75
2019-05-06T12:25:23.510Z,43.47
2019-05-06T12:26:21.384Z,43.29
2019-05-06T12:27:21.355Z,43.90
2019-05-06T12:28:21.476Z,43.20
2019-05-06T12:29:21.338Z,43.71
2019-05-06T12:30:23.087Z,43.53
2019-05-06T12:31:23.314Z,43.84
2019-05-06T12:32:23.346Z,44.96
2019-05-06T12:33:22.234Z,44.67
2019-05-06T12:34:21.328Z,43.57
2019-05-06T12:35:21.258Z,45.23
2019-05-06T12:36:21.259Z,45.41
2019-05-06T12:37:21.248Z,45.92
2019-05-06T12:38:27.456Z,45.61
2019-05-06T12:39:23.115Z,43.28
2019-05-06T12:40:21.240Z,44.82
2019-05-06T12:41:23.035Z,45.43
2019-05-06T12:42:23.206Z,45.53
2019-05-06T12:43:22.593Z,45.23
2019-05-06T12:44:23.058Z,45.82
2019-05-06T12:45:23.193Z,46.25
2019-05-06T12:46:22.563Z,45.20
2019-05-06T12:47:21.227Z,45.20
2019-05-06T12:48:21.145Z,46.44
2019-05-06T12:49:21.170Z,46.21
2019-05-06T12:50:22.741Z,47.45
2019-05-06T12:51:22.751Z,47.35
2019-05-06T12:52:23.171Z,47.05